sensor_id;sensor_type;location;lat;lon;timestamp;P1;durP1;ratioP1;P2;durP2;ratioP2
11098;SDS011;12223;42.650;23.364;2022-09-09T00:01:37;97.63;;;92.63;;
11098;SDS011;12223;42.650;23.364;2022-09-09T00:10:51;85.95;;;81.68;;
11098;SDS011;12223;42.650;23.364;2022-09-09T00:13:25;99.00;;;93.97;;
11098;SDS011;12223;42.650;23.364;2022-09-09T00:16:01;152.20;;;144.65;;
11098;SDS011;12223;42.650;23.364;2022-09-09T00:18:36;145.45;;;138.20;;
11098;SDS011;12223;42.650;23.364;2022-09-09T00:21:07;96.60;;;92.07;;
11098;SDS011;12223;42.650;23.364;2022-09-09T00:23:43;36.38;;;34.08;;
11098;SDS011;12223;42.650;23.364;2022-09-09T00:26:16;45.70;;;43.22;;
11098;SDS011;12223;42.650;23.364;2022-09-09T00:28:50;65.65;;;62.35;;
11098;SDS011;12223;42.650;23.364;2022-09-09T00:31:23;102.97;;;98.28;;
11098;SDS011;12223;42.650;23.364;2022-09-09T00:33:53;78.70;;;75.03;;
11098;SDS011;12223;42.650;23.364;2022-09-09T00:36:27;57.20;;;54.30;;
11098;SDS011;12223;42.650;23.364;2022-09-09T00:38:59;78.93;;;75.25;;
11098;SDS011;12223;42.650;23.364;2022-09-09T00:41:31;94.20;;;89.63;;
11098;SDS011;12223;42.650;23.364;2022-09-09T00:44:20;126.82;;;121.03;;
11098;SDS011;12223;42.650;23.364;2022-09-09T00:46:59;59.58;;;56.50;;
11098;SDS011;12223;42.650;23.364;2022-09-09T00:49:38;81.05;;;76.85;;
11098;SDS011;12223;42.650;23.364;2022-09-09T00:55:38;57.72;;;54.72;;
11098;SDS011;12223;42.650;23.364;2022-09-09T00:58:12;52.20;;;48.83;;
11098;SDS011;12223;42.650;23.364;2022-09-09T01:00:40;59.33;;;56.03;;
11098;SDS011;12223;42.650;23.364;2022-09-09T01:03:25;50.33;;;47.03;;
11098;SDS011;12223;42.650;23.364;2022-09-09T01:06:13;180.32;;;172.52;;
11098;SDS011;12223;42.650;23.364;2022-09-09T01:08:56;124.40;;;118.70;;
11098;SDS011;12223;42.650;23.364;2022-09-09T01:11:47;157.52;;;150.52;;
11098;SDS011;12223;42.650;23.364;2022-09-09T01:14:22;57.85;;;54.90;;
11098;SDS011;12223;42.650;23.364;2022-09-09T01:17:03;24.63;;;22.63;;
11098;SDS011;12223;42.650;23.364;2022-09-09T01:26:17;64.93;;;61.40;;
11098;SDS011;12223;42.650;23.364;2022-09-09T01:28:48;64.95;;;61.20;;
11098;SDS011;12223;42.650;23.364;2022-09-09T01:31:18;36.90;;;34.70;;
11098;SDS011;12223;42.650;23.364;2022-09-09T01:33:48;49.17;;;46.03;;
11098;SDS011;12223;42.650;23.364;2022-09-09T01:36:18;38.72;;;36.17;;
11098;SDS011;12223;42.650;23.364;2022-09-09T01:38:51;42.20;;;39.72;;
11098;SDS011;12223;42.650;23.364;2022-09-09T01:41:20;143.50;;;137.07;;
11098;SDS011;12223;42.650;23.364;2022-09-09T01:43:47;55.75;;;52.65;;
11098;SDS011;12223;42.650;23.364;2022-09-09T01:46:15;180.90;;;172.60;;
11098;SDS011;12223;42.650;23.364;2022-09-09T01:48:43;103.07;;;98.05;;
11098;SDS011;12223;42.650;23.364;2022-09-09T01:51:11;47.63;;;44.42;;
11098;SDS011;12223;42.650;23.364;2022-09-09T01:53:38;33.17;;;30.52;;
11098;SDS011;12223;42.650;23.364;2022-09-09T01:56:10;86.03;;;81.78;;
11098;SDS011;12223;42.650;23.364;2022-09-09T01:59:03;132.38;;;126.10;;
11098;SDS011;12223;42.650;23.364;2022-09-09T02:01:46;182.97;;;174.53;;
11098;SDS011;12223;42.650;23.364;2022-09-09T02:04:28;210.23;;;200.17;;
11098;SDS011;12223;42.650;23.364;2022-09-09T02:07:03;214.33;;;203.80;;
11098;SDS011;12223;42.650;23.364;2022-09-09T02:09:37;213.18;;;201.63;;
11098;SDS011;12223;42.650;23.364;2022-09-09T02:12:11;206.77;;;196.57;;
11098;SDS011;12223;42.650;23.364;2022-09-09T02:14:41;190.53;;;180.17;;
11098;SDS011;12223;42.650;23.364;2022-09-09T02:17:16;194.60;;;184.57;;
11098;SDS011;12223;42.650;23.364;2022-09-09T02:19:49;240.60;;;227.55;;
11098;SDS011;12223;42.650;23.364;2022-09-09T02:22:24;103.80;;;98.70;;
11098;SDS011;12223;42.650;23.364;2022-09-09T02:24:54;117.47;;;111.97;;
11098;SDS011;12223;42.650;23.364;2022-09-09T02:27:26;66.47;;;63.13;;
11098;SDS011;12223;42.650;23.364;2022-09-09T02:29:54;68.07;;;64.53;;
11098;SDS011;12223;42.650;23.364;2022-09-09T02:32:27;63.03;;;59.93;;
11098;SDS011;12223;42.650;23.364;2022-09-09T02:34:57;59.00;;;55.80;;
11098;SDS011;12223;42.650;23.364;2022-09-09T02:37:29;108.07;;;103.17;;
11098;SDS011;12223;42.650;23.364;2022-09-09T02:39:58;83.47;;;79.43;;
11098;SDS011;12223;42.650;23.364;2022-09-09T02:42:26;127.80;;;121.90;;
11098;SDS011;12223;42.650;23.364;2022-09-09T02:44:53;133.53;;;127.13;;
11098;SDS011;12223;42.650;23.364;2022-09-09T02:47:25;75.77;;;72.03;;
11098;SDS011;12223;42.650;23.364;2022-09-09T02:49:58;66.20;;;62.93;;
11098;SDS011;12223;42.650;23.364;2022-09-09T02:52:33;79.80;;;76.03;;
11098;SDS011;12223;42.650;23.364;2022-09-09T02:55:11;65.37;;;62.07;;
11098;SDS011;12223;42.650;23.364;2022-09-09T02:57:47;46.53;;;43.77;;
11098;SDS011;12223;42.650;23.364;2022-09-09T03:00:16;111.33;;;106.37;;
11098;SDS011;12223;42.650;23.364;2022-09-09T03:02:50;102.17;;;97.00;;
11098;SDS011;12223;42.650;23.364;2022-09-09T03:05:18;104.43;;;99.10;;
11098;SDS011;12223;42.650;23.364;2022-09-09T03:07:45;77.53;;;73.60;;
11098;SDS011;12223;42.650;23.364;2022-09-09T03:10:12;82.13;;;77.87;;
11098;SDS011;12223;42.650;23.364;2022-09-09T03:12:39;67.10;;;63.73;;
11098;SDS011;12223;42.650;23.364;2022-09-09T03:15:08;77.53;;;73.77;;
11098;SDS011;12223;42.650;23.364;2022-09-09T03:17:36;125.30;;;119.53;;
11098;SDS011;12223;42.650;23.364;2022-09-09T03:23:24;162.30;;;154.60;;
11098;SDS011;12223;42.650;23.364;2022-09-09T03:25:51;120.10;;;114.07;;
11098;SDS011;12223;42.650;23.364;2022-09-09T03:28:24;70.90;;;67.10;;
11098;SDS011;12223;42.650;23.364;2022-09-09T03:30:59;106.03;;;100.83;;
11098;SDS011;12223;42.650;23.364;2022-09-09T03:33:26;59.87;;;56.47;;
11098;SDS011;12223;42.650;23.364;2022-09-09T03:35:54;135.37;;;129.20;;
11098;SDS011;12223;42.650;23.364;2022-09-09T03:38:22;136.17;;;130.20;;
11098;SDS011;12223;42.650;23.364;2022-09-09T03:40:49;42.83;;;40.23;;
11098;SDS011;12223;42.650;23.364;2022-09-09T03:43:20;103.40;;;98.63;;
11098;SDS011;12223;42.650;23.364;2022-09-09T03:45:47;106.57;;;101.27;;
11098;SDS011;12223;42.650;23.364;2022-09-09T03:48:16;131.43;;;124.77;;
11098;SDS011;12223;42.650;23.364;2022-09-09T03:50:44;138.13;;;131.63;;
11098;SDS011;12223;42.650;23.364;2022-09-09T03:53:11;135.27;;;127.60;;
11098;SDS011;12223;42.650;23.364;2022-09-09T03:55:38;88.90;;;84.40;;
11098;SDS011;12223;42.650;23.364;2022-09-09T03:58:08;98.00;;;93.13;;
11098;SDS011;12223;42.650;23.364;2022-09-09T04:00:35;72.70;;;68.60;;
11098;SDS011;12223;42.650;23.364;2022-09-09T04:03:10;67.03;;;63.60;;
11098;SDS011;12223;42.650;23.364;2022-09-09T04:05:40;62.70;;;59.20;;
11098;SDS011;12223;42.650;23.364;2022-09-09T04:08:07;69.80;;;66.20;;
11098;SDS011;12223;42.650;23.364;2022-09-09T04:10:34;47.33;;;44.13;;
11098;SDS011;12223;42.650;23.364;2022-09-09T04:13:02;67.32;;;63.45;;
11098;SDS011;12223;42.650;23.364;2022-09-09T04:15:29;51.37;;;48.30;;
11098;SDS011;12223;42.650;23.364;2022-09-09T04:17:56;103.13;;;97.93;;
11098;SDS011;12223;42.650;23.364;2022-09-09T04:20:23;145.32;;;138.98;;
11098;SDS011;12223;42.650;23.364;2022-09-09T04:22:51;35.38;;;32.50;;
11098;SDS011;12223;42.650;23.364;2022-09-09T04:25:20;63.67;;;60.38;;
11098;SDS011;12223;42.650;23.364;2022-09-09T04:27:47;85.22;;;80.80;;
11098;SDS011;12223;42.650;23.364;2022-09-09T04:30:16;25.63;;;23.20;;
11098;SDS011;12223;42.650;23.364;2022-09-09T04:32:43;26.52;;;24.55;;
11098;SDS011;12223;42.650;23.364;2022-09-09T04:35:10;48.20;;;45.72;;
11098;SDS011;12223;42.650;23.364;2022-09-09T04:37:37;23.58;;;21.73;;
11098;SDS011;12223;42.650;23.364;2022-09-09T04:40:06;23.02;;;21.08;;
11098;SDS011;12223;42.650;23.364;2022-09-09T04:42:34;18.65;;;17.02;;
11098;SDS011;12223;42.650;23.364;2022-09-09T04:45:02;18.67;;;16.48;;
11098;SDS011;12223;42.650;23.364;2022-09-09T04:47:29;16.85;;;15.35;;
11098;SDS011;12223;42.650;23.364;2022-09-09T04:49:56;15.57;;;13.82;;
11098;SDS011;12223;42.650;23.364;2022-09-09T04:52:23;22.00;;;15.13;;
11098;SDS011;12223;42.650;23.364;2022-09-09T04:54:50;18.58;;;15.00;;
11098;SDS011;12223;42.650;23.364;2022-09-09T04:57:20;26.05;;;18.48;;
11098;SDS011;12223;42.650;23.364;2022-09-09T04:59:47;29.95;;;27.98;;
11098;SDS011;12223;42.650;23.364;2022-09-09T05:02:13;29.00;;;26.40;;
11098;SDS011;12223;42.650;23.364;2022-09-09T05:04:40;20.38;;;18.02;;
11098;SDS011;12223;42.650;23.364;2022-09-09T05:07:08;19.13;;;16.45;;
11098;SDS011;12223;42.650;23.364;2022-09-09T05:09:35;18.73;;;17.08;;
11098;SDS011;12223;42.650;23.364;2022-09-09T05:12:02;22.50;;;18.83;;
11098;SDS011;12223;42.650;23.364;2022-09-09T05:17:52;15.73;;;13.05;;
11098;SDS011;12223;42.650;23.364;2022-09-09T05:20:22;17.50;;;15.88;;
11098;SDS011;12223;42.650;23.364;2022-09-09T05:22:52;12.55;;;11.50;;
11098;SDS011;12223;42.650;23.364;2022-09-09T05:25:19;15.68;;;12.25;;
11098;SDS011;12223;42.650;23.364;2022-09-09T05:27:47;15.98;;;10.68;;
11098;SDS011;12223;42.650;23.364;2022-09-09T05:30:14;20.08;;;13.30;;
11098;SDS011;12223;42.650;23.364;2022-09-09T05:32:43;13.57;;;11.27;;
11098;SDS011;12223;42.650;23.364;2022-09-09T05:35:14;19.25;;;11.65;;
11098;SDS011;12223;42.650;23.364;2022-09-09T05:37:43;13.52;;;10.23;;
11098;SDS011;12223;42.650;23.364;2022-09-09T05:40:11;10.75;;;9.43;;
11098;SDS011;12223;42.650;23.364;2022-09-09T05:42:47;19.25;;;10.95;;
11098;SDS011;12223;42.650;23.364;2022-09-09T05:45:14;13.35;;;10.52;;
11098;SDS011;12223;42.650;23.364;2022-09-09T05:47:40;12.13;;;9.48;;
11098;SDS011;12223;42.650;23.364;2022-09-09T05:50:08;10.82;;;9.23;;
11098;SDS011;12223;42.650;23.364;2022-09-09T05:52:36;10.63;;;9.30;;
11098;SDS011;12223;42.650;23.364;2022-09-09T05:55:03;11.98;;;9.27;;
11098;SDS011;12223;42.650;23.364;2022-09-09T05:57:30;11.27;;;9.50;;
11098;SDS011;12223;42.650;23.364;2022-09-09T05:59:57;12.80;;;9.05;;
11098;SDS011;12223;42.650;23.364;2022-09-09T06:02:24;11.75;;;9.48;;
11098;SDS011;12223;42.650;23.364;2022-09-09T06:04:51;13.02;;;9.50;;
11098;SDS011;12223;42.650;23.364;2022-09-09T06:07:18;12.82;;;9.27;;
11098;SDS011;12223;42.650;23.364;2022-09-09T06:09:46;10.32;;;9.02;;
11098;SDS011;12223;42.650;23.364;2022-09-09T06:12:13;11.80;;;9.40;;
11098;SDS011;12223;42.650;23.364;2022-09-09T06:14:40;11.30;;;8.80;;
11098;SDS011;12223;42.650;23.364;2022-09-09T06:17:06;12.25;;;10.70;;
11098;SDS011;12223;42.650;23.364;2022-09-09T06:19:33;11.23;;;8.80;;
11098;SDS011;12223;42.650;23.364;2022-09-09T06:22:00;11.35;;;9.45;;
11098;SDS011;12223;42.650;23.364;2022-09-09T06:24:30;15.77;;;11.07;;
11098;SDS011;12223;42.650;23.364;2022-09-09T06:26:59;10.48;;;9.32;;
11098;SDS011;12223;42.650;23.364;2022-09-09T06:29:26;12.07;;;9.20;;
11098;SDS011;12223;42.650;23.364;2022-09-09T06:31:52;11.95;;;10.65;;
11098;SDS011;12223;42.650;23.364;2022-09-09T06:34:19;14.40;;;11.65;;
11098;SDS011;12223;42.650;23.364;2022-09-09T06:36:46;13.73;;;12.30;;
11098;SDS011;12223;42.650;23.364;2022-09-09T06:39:13;14.65;;;13.30;;
11098;SDS011;12223;42.650;23.364;2022-09-09T06:41:40;16.63;;;12.10;;
11098;SDS011;12223;42.650;23.364;2022-09-09T06:44:10;13.77;;;11.57;;
11098;SDS011;12223;42.650;23.364;2022-09-09T06:46:37;12.73;;;11.55;;
11098;SDS011;12223;42.650;23.364;2022-09-09T06:49:04;14.45;;;12.00;;
11098;SDS011;12223;42.650;23.364;2022-09-09T06:51:33;13.85;;;12.40;;
11098;SDS011;12223;42.650;23.364;2022-09-09T06:54:02;13.80;;;12.50;;
11098;SDS011;12223;42.650;23.364;2022-09-09T06:56:30;18.17;;;16.85;;
11098;SDS011;12223;42.650;23.364;2022-09-09T06:58:59;15.55;;;14.20;;
11098;SDS011;12223;42.650;23.364;2022-09-09T07:01:29;14.10;;;11.45;;
11098;SDS011;12223;42.650;23.364;2022-09-09T07:03:57;16.50;;;15.00;;
11098;SDS011;12223;42.650;23.364;2022-09-09T07:06:34;16.55;;;12.98;;
11098;SDS011;12223;42.650;23.364;2022-09-09T07:09:04;16.52;;;15.02;;
11098;SDS011;12223;42.650;23.364;2022-09-09T07:11:32;46.63;;;43.95;;
11098;SDS011;12223;42.650;23.364;2022-09-09T07:14:01;37.60;;;34.70;;
11098;SDS011;12223;42.650;23.364;2022-09-09T07:16:31;24.75;;;22.70;;
11098;SDS011;12223;42.650;23.364;2022-09-09T07:18:58;18.02;;;16.42;;
11098;SDS011;12223;42.650;23.364;2022-09-09T07:21:26;17.13;;;15.73;;
11098;SDS011;12223;42.650;23.364;2022-09-09T07:23:53;17.98;;;14.70;;
11098;SDS011;12223;42.650;23.364;2022-09-09T07:26:21;15.57;;;14.13;;
11098;SDS011;12223;42.650;23.364;2022-09-09T07:28:50;16.58;;;15.10;;
11098;SDS011;12223;42.650;23.364;2022-09-09T07:31:17;18.77;;;17.02;;
11098;SDS011;12223;42.650;23.364;2022-09-09T07:33:47;18.50;;;17.30;;
11098;SDS011;12223;42.650;23.364;2022-09-09T07:36:14;19.15;;;17.73;;
11098;SDS011;12223;42.650;23.364;2022-09-09T07:38:43;27.08;;;25.35;;
11098;SDS011;12223;42.650;23.364;2022-09-09T07:41:12;20.80;;;19.38;;
11098;SDS011;12223;42.650;23.364;2022-09-09T07:43:41;15.00;;;13.88;;
11098;SDS011;12223;42.650;23.364;2022-09-09T07:46:10;10.75;;;9.75;;
11098;SDS011;12223;42.650;23.364;2022-09-09T07:48:38;10.52;;;9.57;;
11098;SDS011;12223;42.650;23.364;2022-09-09T07:51:11;12.32;;;11.20;;
11098;SDS011;12223;42.650;23.364;2022-09-09T07:53:42;20.30;;;18.67;;
11098;SDS011;12223;42.650;23.364;2022-09-09T07:56:10;22.05;;;20.52;;
11098;SDS011;12223;42.650;23.364;2022-09-09T07:58:38;21.02;;;19.38;;
11098;SDS011;12223;42.650;23.364;2022-09-09T08:01:06;16.98;;;14.60;;
11098;SDS011;12223;42.650;23.364;2022-09-09T08:03:34;18.02;;;16.52;;
11098;SDS011;12223;42.650;23.364;2022-09-09T08:06:02;20.92;;;19.25;;
11098;SDS011;12223;42.650;23.364;2022-09-09T08:08:32;21.13;;;19.83;;
11098;SDS011;12223;42.650;23.364;2022-09-09T08:11:04;18.48;;;16.98;;
11098;SDS011;12223;42.650;23.364;2022-09-09T08:13:32;21.42;;;19.70;;
11098;SDS011;12223;42.650;23.364;2022-09-09T08:16:03;20.65;;;18.98;;
11098;SDS011;12223;42.650;23.364;2022-09-09T08:18:31;12.10;;;11.00;;
11098;SDS011;12223;42.650;23.364;2022-09-09T08:21:04;17.73;;;16.40;;
11098;SDS011;12223;42.650;23.364;2022-09-09T08:23:34;23.35;;;21.55;;
11098;SDS011;12223;42.650;23.364;2022-09-09T08:26:03;20.63;;;18.95;;
11098;SDS011;12223;42.650;23.364;2022-09-09T08:28:31;23.90;;;22.30;;
11098;SDS011;12223;42.650;23.364;2022-09-09T08:31:04;26.10;;;24.58;;
11098;SDS011;12223;42.650;23.364;2022-09-09T08:33:32;20.63;;;18.92;;
11098;SDS011;12223;42.650;23.364;2022-09-09T08:35:59;20.33;;;18.90;;
11098;SDS011;12223;42.650;23.364;2022-09-09T08:38:25;21.52;;;19.92;;
11098;SDS011;12223;42.650;23.364;2022-09-09T08:40:56;19.73;;;18.25;;
11098;SDS011;12223;42.650;23.364;2022-09-09T08:43:32;19.67;;;18.35;;
11098;SDS011;12223;42.650;23.364;2022-09-09T08:46:00;14.35;;;12.90;;
11098;SDS011;12223;42.650;23.364;2022-09-09T08:48:39;12.20;;;10.98;;
11098;SDS011;12223;42.650;23.364;2022-09-09T08:51:13;13.15;;;11.63;;
11098;SDS011;12223;42.650;23.364;2022-09-09T08:53:41;13.45;;;12.25;;
11098;SDS011;12223;42.650;23.364;2022-09-09T08:56:11;14.43;;;12.30;;
11098;SDS011;12223;42.650;23.364;2022-09-09T08:58:42;14.82;;;12.35;;
11098;SDS011;12223;42.650;23.364;2022-09-09T09:01:22;12.77;;;11.45;;
11098;SDS011;12223;42.650;23.364;2022-09-09T09:04:00;12.00;;;10.40;;
11098;SDS011;12223;42.650;23.364;2022-09-09T09:06:37;11.98;;;10.43;;
11098;SDS011;12223;42.650;23.364;2022-09-09T09:09:13;11.80;;;10.75;;
11098;SDS011;12223;42.650;23.364;2022-09-09T09:11:49;17.65;;;15.75;;
11098;SDS011;12223;42.650;23.364;2022-09-09T09:14:19;14.15;;;10.93;;
11098;SDS011;12223;42.650;23.364;2022-09-09T09:16:49;12.35;;;11.00;;
11098;SDS011;12223;42.650;23.364;2022-09-09T09:19:19;12.40;;;11.20;;
11098;SDS011;12223;42.650;23.364;2022-09-09T09:21:48;13.48;;;12.23;;
11098;SDS011;12223;42.650;23.364;2022-09-09T09:24:19;11.45;;;10.30;;
11098;SDS011;12223;42.650;23.364;2022-09-09T09:26:51;16.45;;;14.32;;
11098;SDS011;12223;42.650;23.364;2022-09-09T09:29:19;13.70;;;12.30;;
11098;SDS011;12223;42.650;23.364;2022-09-09T09:31:47;14.40;;;13.00;;
11098;SDS011;12223;42.650;23.364;2022-09-09T09:34:17;14.50;;;12.63;;
11098;SDS011;12223;42.650;23.364;2022-09-09T09:36:45;13.20;;;11.80;;
11098;SDS011;12223;42.650;23.364;2022-09-09T09:39:22;16.20;;;14.68;;
11098;SDS011;12223;42.650;23.364;2022-09-09T09:41:52;16.65;;;15.32;;
11098;SDS011;12223;42.650;23.364;2022-09-09T09:44:22;12.73;;;11.50;;
11098;SDS011;12223;42.650;23.364;2022-09-09T09:46:50;11.10;;;10.02;;
11098;SDS011;12223;42.650;23.364;2022-09-09T09:49:18;12.77;;;11.50;;
11098;SDS011;12223;42.650;23.364;2022-09-09T09:51:45;14.27;;;10.07;;
11098;SDS011;12223;42.650;23.364;2022-09-09T09:54:15;13.95;;;10.90;;
11098;SDS011;12223;42.650;23.364;2022-09-09T09:56:48;10.75;;;9.65;;
11098;SDS011;12223;42.650;23.364;2022-09-09T09:59:24;11.95;;;10.30;;
11098;SDS011;12223;42.650;23.364;2022-09-09T10:05:14;14.90;;;11.32;;
11098;SDS011;12223;42.650;23.364;2022-09-09T10:07:43;13.45;;;9.27;;
11098;SDS011;12223;42.650;23.364;2022-09-09T10:10:12;14.20;;;10.38;;
11098;SDS011;12223;42.650;23.364;2022-09-09T10:12:47;14.68;;;9.90;;
11098;SDS011;12223;42.650;23.364;2022-09-09T10:15:32;13.35;;;11.55;;
11098;SDS011;12223;42.650;23.364;2022-09-09T10:18:08;12.55;;;10.05;;
11098;SDS011;12223;42.650;23.364;2022-09-09T10:21:02;12.05;;;9.75;;
11098;SDS011;12223;42.650;23.364;2022-09-09T10:23:39;12.88;;;9.63;;
11098;SDS011;12223;42.650;23.364;2022-09-09T10:26:26;10.80;;;9.70;;
11098;SDS011;12223;42.650;23.364;2022-09-09T10:29:08;10.25;;;9.35;;
11098;SDS011;12223;42.650;23.364;2022-09-09T10:32:01;13.65;;;9.02;;
11098;SDS011;12223;42.650;23.364;2022-09-09T10:34:43;10.45;;;9.27;;
11098;SDS011;12223;42.650;23.364;2022-09-09T10:37:24;13.07;;;10.70;;
11098;SDS011;12223;42.650;23.364;2022-09-09T10:40:02;22.38;;;20.60;;
11098;SDS011;12223;42.650;23.364;2022-09-09T10:42:45;27.92;;;26.15;;
11098;SDS011;12223;42.650;23.364;2022-09-09T10:45:15;12.70;;;11.43;;
11098;SDS011;12223;42.650;23.364;2022-09-09T10:47:52;14.13;;;12.82;;
11098;SDS011;12223;42.650;23.364;2022-09-09T10:50:41;16.73;;;15.10;;
11098;SDS011;12223;42.650;23.364;2022-09-09T10:53:17;15.90;;;13.10;;
11098;SDS011;12223;42.650;23.364;2022-09-09T10:55:53;15.15;;;10.88;;
11098;SDS011;12223;42.650;23.364;2022-09-09T10:58:27;11.63;;;10.45;;
11098;SDS011;12223;42.650;23.364;2022-09-09T11:01:01;15.68;;;11.40;;
11098;SDS011;12223;42.650;23.364;2022-09-09T11:03:37;15.15;;;13.77;;
11098;SDS011;12223;42.650;23.364;2022-09-09T11:06:09;16.23;;;14.65;;
11098;SDS011;12223;42.650;23.364;2022-09-09T11:08:41;13.63;;;12.45;;
11098;SDS011;12223;42.650;23.364;2022-09-09T11:11:09;11.57;;;10.30;;
11098;SDS011;12223;42.650;23.364;2022-09-09T11:13:42;15.13;;;11.23;;
11098;SDS011;12223;42.650;23.364;2022-09-09T11:16:19;12.45;;;11.25;;
11098;SDS011;12223;42.650;23.364;2022-09-09T11:18:52;14.75;;;11.05;;
11098;SDS011;12223;42.650;23.364;2022-09-09T11:21:26;11.93;;;10.65;;
11098;SDS011;12223;42.650;23.364;2022-09-09T11:24:02;11.82;;;10.73;;
11098;SDS011;12223;42.650;23.364;2022-09-09T11:26:36;11.68;;;10.45;;
11098;SDS011;12223;42.650;23.364;2022-09-09T11:29:24;11.57;;;10.45;;
11098;SDS011;12223;42.650;23.364;2022-09-09T11:32:10;12.02;;;10.82;;
11098;SDS011;12223;42.650;23.364;2022-09-09T11:34:53;18.35;;;16.17;;
11098;SDS011;12223;42.650;23.364;2022-09-09T11:37:53;15.20;;;13.27;;
11098;SDS011;12223;42.650;23.364;2022-09-09T11:40:39;13.05;;;11.85;;
11098;SDS011;12223;42.650;23.364;2022-09-09T11:43:17;15.20;;;10.70;;
11098;SDS011;12223;42.650;23.364;2022-09-09T11:45:50;16.58;;;10.95;;
11098;SDS011;12223;42.650;23.364;2022-09-09T11:48:25;13.18;;;11.63;;
11098;SDS011;12223;42.650;23.364;2022-09-09T11:50:59;18.73;;;16.40;;
11098;SDS011;12223;42.650;23.364;2022-09-09T11:53:30;14.70;;;13.20;;
11098;SDS011;12223;42.650;23.364;2022-09-09T11:56:04;15.70;;;14.27;;
11098;SDS011;12223;42.650;23.364;2022-09-09T11:58:37;15.07;;;12.75;;
11098;SDS011;12223;42.650;23.364;2022-09-09T12:01:13;14.88;;;13.38;;
11098;SDS011;12223;42.650;23.364;2022-09-09T12:03:43;18.42;;;16.83;;
11098;SDS011;12223;42.650;23.364;2022-09-09T12:06:16;19.52;;;17.90;;
11098;SDS011;12223;42.650;23.364;2022-09-09T12:08:48;23.00;;;21.02;;
11098;SDS011;12223;42.650;23.364;2022-09-09T12:11:24;23.58;;;21.38;;
11098;SDS011;12223;42.650;23.364;2022-09-09T12:13:52;20.92;;;18.75;;
11098;SDS011;12223;42.650;23.364;2022-09-09T12:16:30;19.20;;;14.88;;
11098;SDS011;12223;42.650;23.364;2022-09-09T12:19:04;18.30;;;15.25;;
11098;SDS011;12223;42.650;23.364;2022-09-09T12:21:35;18.73;;;16.38;;
11098;SDS011;12223;42.650;23.364;2022-09-09T12:24:11;21.02;;;19.30;;
11098;SDS011;12223;42.650;23.364;2022-09-09T12:26:43;23.55;;;21.45;;
11098;SDS011;12223;42.650;23.364;2022-09-09T12:29:21;25.63;;;23.63;;
11098;SDS011;12223;42.650;23.364;2022-09-09T12:31:55;26.83;;;24.17;;
11098;SDS011;12223;42.650;23.364;2022-09-09T12:34:39;24.95;;;22.77;;
11098;SDS011;12223;42.650;23.364;2022-09-09T12:37:14;21.83;;;20.17;;
11098;SDS011;12223;42.650;23.364;2022-09-09T12:39:49;23.38;;;21.10;;
11098;SDS011;12223;42.650;23.364;2022-09-09T12:42:22;19.83;;;17.98;;
11098;SDS011;12223;42.650;23.364;2022-09-09T12:44:50;24.25;;;21.80;;
11098;SDS011;12223;42.650;23.364;2022-09-09T12:47:18;22.40;;;20.38;;
11098;SDS011;12223;42.650;23.364;2022-09-09T12:49:48;26.92;;;24.45;;
11098;SDS011;12223;42.650;23.364;2022-09-09T12:52:19;29.27;;;26.83;;
11098;SDS011;12223;42.650;23.364;2022-09-09T12:54:51;26.20;;;24.13;;
11098;SDS011;12223;42.650;23.364;2022-09-09T12:57:19;17.70;;;15.68;;
11098;SDS011;12223;42.650;23.364;2022-09-09T12:59:49;15.68;;;12.80;;
11098;SDS011;12223;42.650;23.364;2022-09-09T13:02:18;15.30;;;12.23;;
11098;SDS011;12223;42.650;23.364;2022-09-09T13:04:46;13.95;;;11.25;;
11098;SDS011;12223;42.650;23.364;2022-09-09T13:07:15;17.67;;;12.38;;
11098;SDS011;12223;42.650;23.364;2022-09-09T13:09:46;21.45;;;12.35;;
11098;SDS011;12223;42.650;23.364;2022-09-09T13:12:17;22.50;;;20.02;;
11098;SDS011;12223;42.650;23.364;2022-09-09T13:14:46;18.58;;;14.70;;
11098;SDS011;12223;42.650;23.364;2022-09-09T13:17:17;20.52;;;12.88;;
11098;SDS011;12223;42.650;23.364;2022-09-09T13:19:53;15.38;;;12.15;;
11098;SDS011;12223;42.650;23.364;2022-09-09T13:22:21;14.90;;;12.43;;
11098;SDS011;12223;42.650;23.364;2022-09-09T13:25:06;16.30;;;12.38;;
11098;SDS011;12223;42.650;23.364;2022-09-09T13:27:51;16.83;;;12.70;;
11098;SDS011;12223;42.650;23.364;2022-09-09T13:30:21;15.43;;;12.43;;
11098;SDS011;12223;42.650;23.364;2022-09-09T13:32:59;15.93;;;14.07;;
11098;SDS011;12223;42.650;23.364;2022-09-09T13:35:31;16.42;;;14.40;;
11098;SDS011;12223;42.650;23.364;2022-09-09T13:37:58;21.45;;;13.88;;
11098;SDS011;12223;42.650;23.364;2022-09-09T13:40:39;22.80;;;20.65;;
11098;SDS011;12223;42.650;23.364;2022-09-09T13:43:15;48.50;;;45.38;;
11098;SDS011;12223;42.650;23.364;2022-09-09T13:45:52;19.48;;;17.60;;
11098;SDS011;12223;42.650;23.364;2022-09-09T13:48:21;17.45;;;15.70;;
11098;SDS011;12223;42.650;23.364;2022-09-09T13:50:53;17.58;;;15.73;;
11098;SDS011;12223;42.650;23.364;2022-09-09T13:53:22;19.02;;;15.77;;
11098;SDS011;12223;42.650;23.364;2022-09-09T13:55:50;19.30;;;16.35;;
11098;SDS011;12223;42.650;23.364;2022-09-09T13:58:17;16.67;;;13.88;;
11098;SDS011;12223;42.650;23.364;2022-09-09T14:00:45;15.60;;;13.50;;
11098;SDS011;12223;42.650;23.364;2022-09-09T14:03:12;16.35;;;12.45;;
11098;SDS011;12223;42.650;23.364;2022-09-09T14:05:39;14.20;;;12.77;;
11098;SDS011;12223;42.650;23.364;2022-09-09T14:08:07;14.15;;;12.75;;
11098;SDS011;12223;42.650;23.364;2022-09-09T14:10:41;15.35;;;12.23;;
11098;SDS011;12223;42.650;23.364;2022-09-09T14:13:09;14.35;;;12.88;;
11098;SDS011;12223;42.650;23.364;2022-09-09T14:15:37;15.88;;;14.27;;
11098;SDS011;12223;42.650;23.364;2022-09-09T14:18:04;15.20;;;13.23;;
11098;SDS011;12223;42.650;23.364;2022-09-09T14:20:31;15.63;;;14.02;;
11098;SDS011;12223;42.650;23.364;2022-09-09T14:22:57;18.00;;;13.05;;
11098;SDS011;12223;42.650;23.364;2022-09-09T14:25:24;17.52;;;13.02;;
11098;SDS011;12223;42.650;23.364;2022-09-09T14:27:51;14.80;;;12.35;;
11098;SDS011;12223;42.650;23.364;2022-09-09T14:30:19;14.57;;;13.07;;
11098;SDS011;12223;42.650;23.364;2022-09-09T14:32:46;15.48;;;12.65;;
11098;SDS011;12223;42.650;23.364;2022-09-09T14:35:13;16.02;;;13.02;;
11098;SDS011;12223;42.650;23.364;2022-09-09T14:37:40;13.90;;;12.40;;
11098;SDS011;12223;42.650;23.364;2022-09-09T14:40:07;13.88;;;12.05;;
11098;SDS011;12223;42.650;23.364;2022-09-09T14:42:34;14.90;;;12.02;;
11098;SDS011;12223;42.650;23.364;2022-09-09T14:45:01;15.85;;;11.85;;
11098;SDS011;12223;42.650;23.364;2022-09-09T14:47:29;18.20;;;12.50;;
11098;SDS011;12223;42.650;23.364;2022-09-09T14:49:56;14.75;;;12.32;;
11098;SDS011;12223;42.650;23.364;2022-09-09T14:52:22;17.50;;;14.02;;
11098;SDS011;12223;42.650;23.364;2022-09-09T14:54:50;14.45;;;12.43;;
11098;SDS011;12223;42.650;23.364;2022-09-09T14:57:17;14.48;;;12.57;;